sensor_id;sensor_type;location;lat;lon;timestamp;P1;durP1;ratioP1;P2;durP2;ratioP2
6947;SDS011;3513;47.664;9.162;2023-12-07T00:00:18;19.10;;;11.60;;
6947;SDS011;3513;47.664;9.162;2023-12-07T00:02:44;18.37;;;12.43;;
6947;SDS011;3513;47.664;9.162;2023-12-07T00:05:09;18.73;;;12.90;;
6947;SDS011;3513;47.664;9.162;2023-12-07T00:07:35;20.53;;;13.40;;
6947;SDS011;3513;47.664;9.162;2023-12-07T00:10:00;17.90;;;13.40;;
6947;SDS011;3513;47.664;9.162;2023-12-07T00:12:26;16.30;;;12.13;;
6947;SDS011;3513;47.664;9.162;2023-12-07T00:14:51;19.97;;;11.30;;
6947;SDS011;3513;47.664;9.162;2023-12-07T00:17:17;18.60;;;12.87;;
6947;SDS011;3513;47.664;9.162;2023-12-07T00:19:42;20.27;;;13.10;;
6947;SDS011;3513;47.664;9.162;2023-12-07T00:22:08;16.80;;;12.43;;
6947;SDS011;3513;47.664;9.162;2023-12-07T00:24:33;21.47;;;13.87;;
6947;SDS011;3513;47.664;9.162;2023-12-07T00:26:59;22.23;;;14.70;;
6947;SDS011;3513;47.664;9.162;2023-12-07T00:29:25;24.33;;;14.83;;
6947;SDS011;3513;47.664;9.162;2023-12-07T00:31:50;25.50;;;14.20;;
6947;SDS011;3513;47.664;9.162;2023-12-07T00:34:16;22.30;;;14.63;;
6947;SDS011;3513;47.664;9.162;2023-12-07T00:36:42;18.90;;;13.20;;
6947;SDS011;3513;47.664;9.162;2023-12-07T00:39:08;22.10;;;15.70;;
6947;SDS011;3513;47.664;9.162;2023-12-07T00:41:33;21.47;;;14.27;;
6947;SDS011;3513;47.664;9.162;2023-12-07T00:43:59;21.57;;;13.60;;
6947;SDS011;3513;47.664;9.162;2023-12-07T00:46:25;22.47;;;15.23;;
6947;SDS011;3513;47.664;9.162;2023-12-07T00:48:50;21.50;;;14.20;;
6947;SDS011;3513;47.664;9.162;2023-12-07T00:51:16;21.47;;;13.83;;
6947;SDS011;3513;47.664;9.162;2023-12-07T00:53:42;19.97;;;13.70;;
6947;SDS011;3513;47.664;9.162;2023-12-07T00:56:07;20.80;;;14.17;;
6947;SDS011;3513;47.664;9.162;2023-12-07T00:58:33;21.40;;;14.37;;
6947;SDS011;3513;47.664;9.162;2023-12-07T01:00:59;24.20;;;14.90;;
6947;SDS011;3513;47.664;9.162;2023-12-07T01:03:25;20.53;;;14.63;;
6947;SDS011;3513;47.664;9.162;2023-12-07T01:05:50;21.63;;;15.23;;
6947;SDS011;3513;47.664;9.162;2023-12-07T01:08:16;19.90;;;14.40;;
6947;SDS011;3513;47.664;9.162;2023-12-07T01:10:42;23.13;;;14.00;;
6947;SDS011;3513;47.664;9.162;2023-12-07T01:13:07;20.30;;;12.67;;
6947;SDS011;3513;47.664;9.162;2023-12-07T01:15:33;22.00;;;14.50;;
6947;SDS011;3513;47.664;9.162;2023-12-07T01:17:58;18.30;;;13.33;;
6947;SDS011;3513;47.664;9.162;2023-12-07T01:20:24;21.40;;;15.97;;
6947;SDS011;3513;47.664;9.162;2023-12-07T01:22:49;22.57;;;14.30;;
6947;SDS011;3513;47.664;9.162;2023-12-07T01:25:15;24.00;;;14.33;;
6947;SDS011;3513;47.664;9.162;2023-12-07T01:27:46;22.87;;;14.37;;
6947;SDS011;3513;47.664;9.162;2023-12-07T01:30:12;20.90;;;13.97;;
6947;SDS011;3513;47.664;9.162;2023-12-07T01:32:37;25.00;;;14.43;;
6947;SDS011;3513;47.664;9.162;2023-12-07T01:35:03;23.80;;;15.97;;
6947;SDS011;3513;47.664;9.162;2023-12-07T01:37:29;23.93;;;15.03;;
6947;SDS011;3513;47.664;9.162;2023-12-07T01:39:55;23.23;;;15.50;;
6947;SDS011;3513;47.664;9.162;2023-12-07T01:42:21;26.80;;;15.77;;
6947;SDS011;3513;47.664;9.162;2023-12-07T01:44:46;26.33;;;17.10;;
6947;SDS011;3513;47.664;9.162;2023-12-07T01:47:12;25.43;;;15.37;;
6947;SDS011;3513;47.664;9.162;2023-12-07T01:49:38;26.90;;;16.47;;
6947;SDS011;3513;47.664;9.162;2023-12-07T01:52:05;25.57;;;15.67;;
6947;SDS011;3513;47.664;9.162;2023-12-07T01:54:32;24.27;;;16.00;;
6947;SDS011;3513;47.664;9.162;2023-12-07T01:56:58;24.17;;;14.30;;
6947;SDS011;3513;47.664;9.162;2023-12-07T01:59:24;29.60;;;16.70;;
6947;SDS011;3513;47.664;9.162;2023-12-07T02:01:50;22.60;;;14.43;;
6947;SDS011;3513;47.664;9.162;2023-12-07T02:04:16;23.00;;;14.17;;
6947;SDS011;3513;47.664;9.162;2023-12-07T02:06:42;25.93;;;15.73;;
6947;SDS011;3513;47.664;9.162;2023-12-07T02:09:07;22.67;;;14.97;;
6947;SDS011;3513;47.664;9.162;2023-12-07T02:11:34;22.23;;;14.53;;
6947;SDS011;3513;47.664;9.162;2023-12-07T02:13:59;21.90;;;14.30;;
6947;SDS011;3513;47.664;9.162;2023-12-07T02:21:53;27.60;;;14.50;;
6947;SDS011;3513;47.664;9.162;2023-12-07T02:24:23;27.73;;;13.57;;
6947;SDS011;3513;47.664;9.162;2023-12-07T02:26:53;25.00;;;16.70;;
6947;SDS011;3513;47.664;9.162;2023-12-07T02:29:19;21.20;;;13.80;;
6947;SDS011;3513;47.664;9.162;2023-12-07T02:31:45;20.50;;;14.30;;
6947;SDS011;3513;47.664;9.162;2023-12-07T02:34:10;24.63;;;14.93;;
6947;SDS011;3513;47.664;9.162;2023-12-07T02:36:36;19.80;;;12.90;;
6947;SDS011;3513;47.664;9.162;2023-12-07T02:39:04;23.23;;;14.73;;
6947;SDS011;3513;47.664;9.162;2023-12-07T02:41:32;19.17;;;13.90;;
6947;SDS011;3513;47.664;9.162;2023-12-07T02:43:58;24.13;;;15.50;;
6947;SDS011;3513;47.664;9.162;2023-12-07T02:46:25;23.27;;;16.00;;
6947;SDS011;3513;47.664;9.162;2023-12-07T02:48:51;23.37;;;14.67;;
6947;SDS011;3513;47.664;9.162;2023-12-07T02:51:17;27.23;;;16.10;;
6947;SDS011;3513;47.664;9.162;2023-12-07T02:53:42;22.67;;;15.20;;
6947;SDS011;3513;47.664;9.162;2023-12-07T02:56:08;25.97;;;18.47;;
6947;SDS011;3513;47.664;9.162;2023-12-07T02:58:33;24.43;;;17.07;;
6947;SDS011;3513;47.664;9.162;2023-12-07T03:00:59;24.80;;;16.03;;
6947;SDS011;3513;47.664;9.162;2023-12-07T03:03:24;31.63;;;18.77;;
6947;SDS011;3513;47.664;9.162;2023-12-07T03:05:50;31.43;;;18.20;;
6947;SDS011;3513;47.664;9.162;2023-12-07T03:08:16;26.27;;;16.67;;
6947;SDS011;3513;47.664;9.162;2023-12-07T03:10:41;29.77;;;19.03;;
6947;SDS011;3513;47.664;9.162;2023-12-07T03:13:07;29.03;;;17.90;;
6947;SDS011;3513;47.664;9.162;2023-12-07T03:15:32;34.10;;;18.60;;
6947;SDS011;3513;47.664;9.162;2023-12-07T03:17:58;29.17;;;17.43;;
6947;SDS011;3513;47.664;9.162;2023-12-07T03:20:24;28.23;;;16.27;;
6947;SDS011;3513;47.664;9.162;2023-12-07T03:22:50;24.53;;;15.73;;
6947;SDS011;3513;47.664;9.162;2023-12-07T03:25:15;24.10;;;16.60;;
6947;SDS011;3513;47.664;9.162;2023-12-07T03:27:41;26.30;;;15.57;;
6947;SDS011;3513;47.664;9.162;2023-12-07T03:30:06;26.03;;;15.33;;
6947;SDS011;3513;47.664;9.162;2023-12-07T03:32:32;25.33;;;16.60;;
6947;SDS011;3513;47.664;9.162;2023-12-07T03:34:58;26.60;;;15.20;;
6947;SDS011;3513;47.664;9.162;2023-12-07T03:37:23;21.77;;;14.93;;
6947;SDS011;3513;47.664;9.162;2023-12-07T03:39:49;22.23;;;14.80;;
6947;SDS011;3513;47.664;9.162;2023-12-07T03:42:14;24.30;;;15.30;;
6947;SDS011;3513;47.664;9.162;2023-12-07T03:44:40;27.77;;;16.10;;
6947;SDS011;3513;47.664;9.162;2023-12-07T03:47:06;28.33;;;18.07;;
6947;SDS011;3513;47.664;9.162;2023-12-07T03:49:31;26.63;;;17.70;;
6947;SDS011;3513;47.664;9.162;2023-12-07T03:51:57;25.80;;;17.13;;
6947;SDS011;3513;47.664;9.162;2023-12-07T03:54:22;31.00;;;18.37;;
6947;SDS011;3513;47.664;9.162;2023-12-07T03:56:48;29.07;;;18.00;;
6947;SDS011;3513;47.664;9.162;2023-12-07T03:59:13;33.10;;;18.13;;
6947;SDS011;3513;47.664;9.162;2023-12-07T04:01:40;28.70;;;16.27;;
6947;SDS011;3513;47.664;9.162;2023-12-07T04:04:05;29.93;;;18.20;;
6947;SDS011;3513;47.664;9.162;2023-12-07T04:06:31;32.20;;;18.80;;
6947;SDS011;3513;47.664;9.162;2023-12-07T04:08:57;29.90;;;17.27;;
6947;SDS011;3513;47.664;9.162;2023-12-07T04:11:22;31.47;;;18.20;;
6947;SDS011;3513;47.664;9.162;2023-12-07T04:13:48;38.83;;;18.70;;
6947;SDS011;3513;47.664;9.162;2023-12-07T04:16:14;32.33;;;17.67;;
6947;SDS011;3513;47.664;9.162;2023-12-07T04:18:40;25.37;;;17.27;;
6947;SDS011;3513;47.664;9.162;2023-12-07T04:21:05;29.27;;;19.00;;
6947;SDS011;3513;47.664;9.162;2023-12-07T04:23:31;27.33;;;17.30;;
6947;SDS011;3513;47.664;9.162;2023-12-07T04:25:56;27.63;;;16.60;;
6947;SDS011;3513;47.664;9.162;2023-12-07T04:28:22;28.57;;;17.00;;
6947;SDS011;3513;47.664;9.162;2023-12-07T04:30:48;25.97;;;16.03;;
6947;SDS011;3513;47.664;9.162;2023-12-07T04:33:13;33.40;;;19.23;;
6947;SDS011;3513;47.664;9.162;2023-12-07T04:35:39;29.07;;;17.47;;
6947;SDS011;3513;47.664;9.162;2023-12-07T04:38:05;28.77;;;16.27;;
6947;SDS011;3513;47.664;9.162;2023-12-07T04:40:30;25.67;;;17.10;;
6947;SDS011;3513;47.664;9.162;2023-12-07T04:42:56;33.87;;;17.37;;
6947;SDS011;3513;47.664;9.162;2023-12-07T04:45:21;30.50;;;18.93;;
6947;SDS011;3513;47.664;9.162;2023-12-07T04:47:47;30.10;;;17.30;;
6947;SDS011;3513;47.664;9.162;2023-12-07T04:50:13;34.23;;;20.10;;
6947;SDS011;3513;47.664;9.162;2023-12-07T04:52:39;31.83;;;19.80;;
6947;SDS011;3513;47.664;9.162;2023-12-07T04:55:05;28.87;;;16.43;;
6947;SDS011;3513;47.664;9.162;2023-12-07T04:57:31;33.53;;;19.40;;
6947;SDS011;3513;47.664;9.162;2023-12-07T05:00:01;33.60;;;19.40;;
6947;SDS011;3513;47.664;9.162;2023-12-07T05:02:31;34.60;;;18.77;;
6947;SDS011;3513;47.664;9.162;2023-12-07T05:04:56;38.23;;;20.67;;
6947;SDS011;3513;47.664;9.162;2023-12-07T05:07:22;40.83;;;21.70;;
6947;SDS011;3513;47.664;9.162;2023-12-07T05:09:48;39.13;;;21.00;;
6947;SDS011;3513;47.664;9.162;2023-12-07T05:12:15;43.10;;;23.20;;
6947;SDS011;3513;47.664;9.162;2023-12-07T05:14:41;39.23;;;21.50;;
6947;SDS011;3513;47.664;9.162;2023-12-07T05:17:07;29.97;;;18.20;;
6947;SDS011;3513;47.664;9.162;2023-12-07T05:19:33;47.03;;;27.70;;
6947;SDS011;3513;47.664;9.162;2023-12-07T05:21:58;45.90;;;28.27;;
6947;SDS011;3513;47.664;9.162;2023-12-07T05:24:24;49.80;;;29.50;;
6947;SDS011;3513;47.664;9.162;2023-12-07T05:26:49;45.93;;;25.20;;
6947;SDS011;3513;47.664;9.162;2023-12-07T05:29:15;41.80;;;23.63;;
6947;SDS011;3513;47.664;9.162;2023-12-07T05:31:40;44.47;;;23.10;;
6947;SDS011;3513;47.664;9.162;2023-12-07T05:34:07;40.87;;;23.10;;
6947;SDS011;3513;47.664;9.162;2023-12-07T05:36:32;40.87;;;22.40;;
6947;SDS011;3513;47.664;9.162;2023-12-07T05:38:58;46.00;;;24.87;;
6947;SDS011;3513;47.664;9.162;2023-12-07T05:41:24;39.13;;;21.93;;
6947;SDS011;3513;47.664;9.162;2023-12-07T05:43:50;41.60;;;22.60;;
6947;SDS011;3513;47.664;9.162;2023-12-07T05:46:17;43.77;;;24.67;;
6947;SDS011;3513;47.664;9.162;2023-12-07T05:48:43;67.40;;;32.33;;
6947;SDS011;3513;47.664;9.162;2023-12-07T05:51:16;144.17;;;55.57;;
6947;SDS011;3513;47.664;9.162;2023-12-07T05:53:42;133.17;;;53.60;;
6947;SDS011;3513;47.664;9.162;2023-12-07T05:56:08;145.87;;;54.00;;
6947;SDS011;3513;47.664;9.162;2023-12-07T05:58:34;109.80;;;46.63;;
6947;SDS011;3513;47.664;9.162;2023-12-07T06:01:00;45.67;;;23.60;;
6947;SDS011;3513;47.664;9.162;2023-12-07T06:03:27;38.83;;;20.70;;
6947;SDS011;3513;47.664;9.162;2023-12-07T06:05:54;31.20;;;19.37;;
6947;SDS011;3513;47.664;9.162;2023-12-07T06:08:21;38.57;;;19.03;;
6947;SDS011;3513;47.664;9.162;2023-12-07T06:10:47;58.37;;;27.30;;
6947;SDS011;3513;47.664;9.162;2023-12-07T06:13:13;35.87;;;18.37;;
6947;SDS011;3513;47.664;9.162;2023-12-07T06:15:39;31.97;;;19.43;;
6947;SDS011;3513;47.664;9.162;2023-12-07T06:18:05;33.87;;;18.50;;
6947;SDS011;3513;47.664;9.162;2023-12-07T06:20:30;36.27;;;20.10;;
6947;SDS011;3513;47.664;9.162;2023-12-07T06:22:56;29.67;;;17.97;;
6947;SDS011;3513;47.664;9.162;2023-12-07T06:25:22;31.70;;;19.20;;
6947;SDS011;3513;47.664;9.162;2023-12-07T06:27:48;35.37;;;18.53;;
6947;SDS011;3513;47.664;9.162;2023-12-07T06:30:14;38.00;;;18.40;;
6947;SDS011;3513;47.664;9.162;2023-12-07T06:32:40;30.23;;;17.80;;
6947;SDS011;3513;47.664;9.162;2023-12-07T06:35:05;36.63;;;19.50;;
6947;SDS011;3513;47.664;9.162;2023-12-07T06:37:31;30.83;;;17.07;;
6947;SDS011;3513;47.664;9.162;2023-12-07T06:39:57;40.63;;;20.80;;
6947;SDS011;3513;47.664;9.162;2023-12-07T06:42:23;38.83;;;19.20;;
6947;SDS011;3513;47.664;9.162;2023-12-07T06:44:49;37.20;;;20.27;;
6947;SDS011;3513;47.664;9.162;2023-12-07T06:47:15;36.73;;;21.70;;
6947;SDS011;3513;47.664;9.162;2023-12-07T06:49:41;48.37;;;20.43;;
6947;SDS011;3513;47.664;9.162;2023-12-07T06:52:06;39.27;;;20.93;;
6947;SDS011;3513;47.664;9.162;2023-12-07T06:54:32;45.53;;;21.83;;
6947;SDS011;3513;47.664;9.162;2023-12-07T06:56:59;54.03;;;22.90;;
6947;SDS011;3513;47.664;9.162;2023-12-07T06:59:24;33.50;;;18.67;;
6947;SDS011;3513;47.664;9.162;2023-12-07T07:01:50;31.60;;;17.80;;
6947;SDS011;3513;47.664;9.162;2023-12-07T07:04:15;36.40;;;18.90;;
6947;SDS011;3513;47.664;9.162;2023-12-07T07:06:41;34.40;;;18.10;;
6947;SDS011;3513;47.664;9.162;2023-12-07T07:09:07;47.23;;;21.33;;
6947;SDS011;3513;47.664;9.162;2023-12-07T07:11:33;40.13;;;21.50;;
6947;SDS011;3513;47.664;9.162;2023-12-07T07:13:59;42.23;;;21.00;;
6947;SDS011;3513;47.664;9.162;2023-12-07T07:16:25;38.60;;;20.37;;
6947;SDS011;3513;47.664;9.162;2023-12-07T07:18:50;41.83;;;24.30;;
6947;SDS011;3513;47.664;9.162;2023-12-07T07:21:16;38.03;;;21.37;;
6947;SDS011;3513;47.664;9.162;2023-12-07T07:23:41;48.13;;;25.43;;
6947;SDS011;3513;47.664;9.162;2023-12-07T07:26:07;46.33;;;22.67;;
6947;SDS011;3513;47.664;9.162;2023-12-07T07:28:33;51.67;;;27.80;;
6947;SDS011;3513;47.664;9.162;2023-12-07T07:30:59;44.10;;;24.67;;
6947;SDS011;3513;47.664;9.162;2023-12-07T07:33:25;43.80;;;24.50;;
6947;SDS011;3513;47.664;9.162;2023-12-07T07:35:51;45.90;;;23.30;;
6947;SDS011;3513;47.664;9.162;2023-12-07T07:38:16;46.40;;;23.00;;
6947;SDS011;3513;47.664;9.162;2023-12-07T07:40:42;45.93;;;25.13;;
6947;SDS011;3513;47.664;9.162;2023-12-07T07:43:08;43.70;;;22.50;;
6947;SDS011;3513;47.664;9.162;2023-12-07T07:45:33;42.70;;;25.07;;
6947;SDS011;3513;47.664;9.162;2023-12-07T07:48:00;59.00;;;26.13;;
6947;SDS011;3513;47.664;9.162;2023-12-07T07:50:25;45.53;;;24.70;;
6947;SDS011;3513;47.664;9.162;2023-12-07T07:52:51;42.43;;;23.60;;
6947;SDS011;3513;47.664;9.162;2023-12-07T07:55:16;50.90;;;25.87;;
6947;SDS011;3513;47.664;9.162;2023-12-07T07:57:42;49.50;;;28.37;;
6947;SDS011;3513;47.664;9.162;2023-12-07T08:00:08;43.57;;;24.53;;
6947;SDS011;3513;47.664;9.162;2023-12-07T08:02:34;53.57;;;26.60;;
6947;SDS011;3513;47.664;9.162;2023-12-07T08:05:01;47.23;;;24.73;;
6947;SDS011;3513;47.664;9.162;2023-12-07T08:07:27;44.03;;;22.10;;
6947;SDS011;3513;47.664;9.162;2023-12-07T08:09:53;48.67;;;24.73;;
6947;SDS011;3513;47.664;9.162;2023-12-07T08:12:18;51.87;;;23.77;;
6947;SDS011;3513;47.664;9.162;2023-12-07T08:14:44;45.17;;;26.17;;
6947;SDS011;3513;47.664;9.162;2023-12-07T08:17:11;44.03;;;24.53;;
6947;SDS011;3513;47.664;9.162;2023-12-07T08:19:37;36.93;;;22.93;;
6947;SDS011;3513;47.664;9.162;2023-12-07T08:22:05;39.60;;;23.00;;
6947;SDS011;3513;47.664;9.162;2023-12-07T08:24:31;39.30;;;22.60;;
6947;SDS011;3513;47.664;9.162;2023-12-07T08:26:56;39.43;;;20.80;;
6947;SDS011;3513;47.664;9.162;2023-12-07T08:29:22;41.90;;;22.83;;
6947;SDS011;3513;47.664;9.162;2023-12-07T08:31:47;38.90;;;23.03;;
6947;SDS011;3513;47.664;9.162;2023-12-07T08:34:13;37.80;;;22.83;;
6947;SDS011;3513;47.664;9.162;2023-12-07T08:36:39;36.40;;;21.23;;
6947;SDS011;3513;47.664;9.162;2023-12-07T08:39:04;36.30;;;20.40;;
6947;SDS011;3513;47.664;9.162;2023-12-07T08:41:34;31.20;;;19.50;;
6947;SDS011;3513;47.664;9.162;2023-12-07T08:44:01;32.60;;;19.63;;
6947;SDS011;3513;47.664;9.162;2023-12-07T08:46:27;32.67;;;19.13;;
6947;SDS011;3513;47.664;9.162;2023-12-07T08:48:52;32.20;;;19.77;;
6947;SDS011;3513;47.664;9.162;2023-12-07T08:51:18;31.87;;;19.13;;
6947;SDS011;3513;47.664;9.162;2023-12-07T08:53:44;33.73;;;20.47;;
6947;SDS011;3513;47.664;9.162;2023-12-07T08:56:10;32.53;;;19.20;;
6947;SDS011;3513;47.664;9.162;2023-12-07T08:58:37;33.40;;;17.87;;
6947;SDS011;3513;47.664;9.162;2023-12-07T09:01:04;30.47;;;17.50;;
6947;SDS011;3513;47.664;9.162;2023-12-07T09:03:30;26.80;;;16.20;;
6947;SDS011;3513;47.664;9.162;2023-12-07T09:05:57;28.23;;;16.27;;
6947;SDS011;3513;47.664;9.162;2023-12-07T09:08:23;28.47;;;16.27;;
6947;SDS011;3513;47.664;9.162;2023-12-07T09:10:48;26.03;;;15.73;;
6947;SDS011;3513;47.664;9.162;2023-12-07T09:13:16;24.30;;;15.73;;
6947;SDS011;3513;47.664;9.162;2023-12-07T09:15:42;22.97;;;16.00;;
6947;SDS011;3513;47.664;9.162;2023-12-07T09:18:08;25.33;;;15.70;;
6947;SDS011;3513;47.664;9.162;2023-12-07T09:20:33;23.00;;;15.00;;
6947;SDS011;3513;47.664;9.162;2023-12-07T09:22:59;25.00;;;13.90;;
6947;SDS011;3513;47.664;9.162;2023-12-07T09:25:24;20.10;;;14.03;;
6947;SDS011;3513;47.664;9.162;2023-12-07T09:27:52;27.20;;;14.23;;
6947;SDS011;3513;47.664;9.162;2023-12-07T09:30:18;24.37;;;14.17;;
6947;SDS011;3513;47.664;9.162;2023-12-07T09:32:44;22.47;;;13.17;;
6947;SDS011;3513;47.664;9.162;2023-12-07T09:35:10;22.70;;;13.00;;
6947;SDS011;3513;47.664;9.162;2023-12-07T09:37:44;23.70;;;12.43;;
6947;SDS011;3513;47.664;9.162;2023-12-07T09:40:20;19.10;;;12.87;;
6947;SDS011;3513;47.664;9.162;2023-12-07T09:42:47;17.43;;;11.63;;
6947;SDS011;3513;47.664;9.162;2023-12-07T09:45:13;21.17;;;12.53;;
6947;SDS011;3513;47.664;9.162;2023-12-07T09:47:43;25.10;;;14.73;;
6947;SDS011;3513;47.664;9.162;2023-12-07T09:50:16;22.43;;;14.10;;
6947;SDS011;3513;47.664;9.162;2023-12-07T09:52:43;25.83;;;15.50;;
6947;SDS011;3513;47.664;9.162;2023-12-07T09:55:09;25.30;;;14.67;;
6947;SDS011;3513;47.664;9.162;2023-12-07T09:57:36;35.03;;;17.83;;
6947;SDS011;3513;47.664;9.162;2023-12-07T10:00:03;44.10;;;22.43;;
6947;SDS011;3513;47.664;9.162;2023-12-07T10:02:29;40.20;;;18.47;;
6947;SDS011;3513;47.664;9.162;2023-12-07T10:05:05;31.60;;;18.10;;
6947;SDS011;3513;47.664;9.162;2023-12-07T10:07:32;23.77;;;15.27;;
6947;SDS011;3513;47.664;9.162;2023-12-07T10:09:59;23.30;;;13.37;;
6947;SDS011;3513;47.664;9.162;2023-12-07T10:12:25;22.60;;;14.00;;
6947;SDS011;3513;47.664;9.162;2023-12-07T10:14:50;15.67;;;11.43;;
6947;SDS011;3513;47.664;9.162;2023-12-07T10:17:16;17.70;;;11.80;;
6947;SDS011;3513;47.664;9.162;2023-12-07T10:19:41;14.57;;;9.33;;
6947;SDS011;3513;47.664;9.162;2023-12-07T10:22:13;19.23;;;11.97;;
6947;SDS011;3513;47.664;9.162;2023-12-07T10:24:39;20.73;;;12.70;;
6947;SDS011;3513;47.664;9.162;2023-12-07T10:27:06;15.23;;;11.50;;
6947;SDS011;3513;47.664;9.162;2023-12-07T10:29:35;19.00;;;12.20;;
6947;SDS011;3513;47.664;9.162;2023-12-07T10:32:01;21.13;;;14.00;;
6947;SDS011;3513;47.664;9.162;2023-12-07T10:34:29;15.30;;;10.67;;
6947;SDS011;3513;47.664;9.162;2023-12-07T10:36:56;18.43;;;12.30;;
6947;SDS011;3513;47.664;9.162;2023-12-07T10:39:23;17.93;;;11.00;;
6947;SDS011;3513;47.664;9.162;2023-12-07T10:41:52;15.20;;;10.73;;
6947;SDS011;3513;47.664;9.162;2023-12-07T10:44:21;23.27;;;12.03;;
6947;SDS011;3513;47.664;9.162;2023-12-07T10:46:51;18.83;;;11.27;;
6947;SDS011;3513;47.664;9.162;2023-12-07T10:49:17;18.20;;;10.40;;
6947;SDS011;3513;47.664;9.162;2023-12-07T10:54:20;17.60;;;11.27;;
6947;SDS011;3513;47.664;9.162;2023-12-07T10:56:48;17.90;;;11.43;;
6947;SDS011;3513;47.664;9.162;2023-12-07T10:59:15;16.00;;;10.60;;
6947;SDS011;3513;47.664;9.162;2023-12-07T11:01:42;15.80;;;9.77;;
6947;SDS011;3513;47.664;9.162;2023-12-07T11:04:12;15.47;;;9.90;;
6947;SDS011;3513;47.664;9.162;2023-12-07T11:06:41;14.07;;;9.93;;
6947;SDS011;3513;47.664;9.162;2023-12-07T11:09:13;17.33;;;11.40;;
6947;SDS011;3513;47.664;9.162;2023-12-07T11:11:48;15.07;;;9.70;;
6947;SDS011;3513;47.664;9.162;2023-12-07T11:14:19;15.03;;;9.97;;
6947;SDS011;3513;47.664;9.162;2023-12-07T11:16:46;12.60;;;9.80;;
6947;SDS011;3513;47.664;9.162;2023-12-07T11:22:01;15.47;;;10.00;;
6947;SDS011;3513;47.664;9.162;2023-12-07T11:24:27;16.90;;;11.03;;
6947;SDS011;3513;47.664;9.162;2023-12-07T11:26:53;15.80;;;9.60;;
6947;SDS011;3513;47.664;9.162;2023-12-07T11:29:20;16.60;;;10.20;;
6947;SDS011;3513;47.664;9.162;2023-12-07T11:31:49;18.33;;;10.23;;
6947;SDS011;3513;47.664;9.162;2023-12-07T11:34:33;14.33;;;9.67;;
6947;SDS011;3513;47.664;9.162;2023-12-07T11:37:03;12.57;;;8.67;;
6947;SDS011;3513;47.664;9.162;2023-12-07T11:39:34;11.20;;;8.40;;
6947;SDS011;3513;47.664;9.162;2023-12-07T11:42:12;13.43;;;8.40;;
6947;SDS011;3513;47.664;9.162;2023-12-07T11:44:41;12.20;;;8.60;;
6947;SDS011;3513;47.664;9.162;2023-12-07T11:47:08;17.10;;;9.40;;
6947;SDS011;3513;47.664;9.162;2023-12-07T11:49:34;11.00;;;8.50;;
6947;SDS011;3513;47.664;9.162;2023-12-07T11:52:00;12.07;;;8.60;;
6947;SDS011;3513;47.664;9.162;2023-12-07T11:54:37;12.70;;;8.90;;
6947;SDS011;3513;47.664;9.162;2023-12-07T11:57:02;11.17;;;7.97;;
6947;SDS011;3513;47.664;9.162;2023-12-07T11:59:29;50.57;;;21.20;;
6947;SDS011;3513;47.664;9.162;2023-12-07T12:01:55;25.33;;;13.30;;
6947;SDS011;3513;47.664;9.162;2023-12-07T12:04:24;12.73;;;8.73;;
6947;SDS011;3513;47.664;9.162;2023-12-07T12:06:49;13.70;;;7.70;;
6947;SDS011;3513;47.664;9.162;2023-12-07T12:09:15;12.00;;;8.00;;
6947;SDS011;3513;47.664;9.162;2023-12-07T12:11:44;21.33;;;9.20;;
6947;SDS011;3513;47.664;9.162;2023-12-07T12:14:11;10.20;;;6.20;;
6947;SDS011;3513;47.664;9.162;2023-12-07T12:16:47;12.80;;;8.80;;
6947;SDS011;3513;47.664;9.162;2023-12-07T12:19:12;16.07;;;8.80;;
6947;SDS011;3513;47.664;9.162;2023-12-07T12:21:41;26.10;;;12.73;;
6947;SDS011;3513;47.664;9.162;2023-12-07T12:24:08;12.63;;;7.70;;
6947;SDS011;3513;47.664;9.162;2023-12-07T12:26:34;13.83;;;7.53;;
6947;SDS011;3513;47.664;9.162;2023-12-07T12:29:04;10.30;;;7.10;;
6947;SDS011;3513;47.664;9.162;2023-12-07T12:31:31;10.87;;;7.17;;
6947;SDS011;3513;47.664;9.162;2023-12-07T12:33:57;12.70;;;7.37;;
6947;SDS011;3513;47.664;9.162;2023-12-07T12:36:23;12.27;;;7.03;;
6947;SDS011;3513;47.664;9.162;2023-12-07T12:38:52;9.77;;;7.47;;
6947;SDS011;3513;47.664;9.162;2023-12-07T12:41:18;9.93;;;6.90;;
6947;SDS011;3513;47.664;9.162;2023-12-07T12:43:44;10.50;;;7.10;;
6947;SDS011;3513;47.664;9.162;2023-12-07T12:46:10;9.33;;;6.83;;
6947;SDS011;3513;47.664;9.162;2023-12-07T12:48:36;7.60;;;6.30;;
6947;SDS011;3513;47.664;9.162;2023-12-07T12:51:08;12.20;;;7.73;;
6947;SDS011;3513;47.664;9.162;2023-12-07T12:53:46;11.40;;;8.00;;
6947;SDS011;3513;47.664;9.162;2023-12-07T12:56:13;11.83;;;7.93;;
6947;SDS011;3513;47.664;9.162;2023-12-07T12:58:39;9.50;;;6.90;;
6947;SDS011;3513;47.664;9.162;2023-12-07T13:01:04;12.77;;;6.70;;
6947;SDS011;3513;47.664;9.162;2023-12-07T13:03:31;11.67;;;6.93;;
6947;SDS011;3513;47.664;9.162;2023-12-07T13:05:57;9.53;;;6.73;;
6947;SDS011;3513;47.664;9.162;2023-12-07T13:08:23;10.07;;;7.83;;
6947;SDS011;3513;47.664;9.162;2023-12-07T13:10:49;13.20;;;9.03;;
6947;SDS011;3513;47.664;9.162;2023-12-07T13:13:15;13.20;;;8.17;;
6947;SDS011;3513;47.664;9.162;2023-12-07T13:15:41;9.70;;;6.03;;
6947;SDS011;3513;47.664;9.162;2023-12-07T13:18:07;8.27;;;6.43;;
6947;SDS011;3513;47.664;9.162;2023-12-07T13:20:33;12.63;;;6.60;;
6947;SDS011;3513;47.664;9.162;2023-12-07T13:23:00;7.33;;;5.37;;
6947;SDS011;3513;47.664;9.162;2023-12-07T13:25:25;8.33;;;6.13;;
6947;SDS011;3513;47.664;9.162;2023-12-07T13:27:51;15.00;;;9.47;;
6947;SDS011;3513;47.664;9.162;2023-12-07T13:30:17;9.63;;;6.33;;
6947;SDS011;3513;47.664;9.162;2023-12-07T13:32:43;5.30;;;4.13;;
6947;SDS011;3513;47.664;9.162;2023-12-07T13:35:08;7.60;;;4.40;;
6947;SDS011;3513;47.664;9.162;2023-12-07T13:37:34;6.30;;;4.30;;
6947;SDS011;3513;47.664;9.162;2023-12-07T13:40:01;5.40;;;4.60;;
6947;SDS011;3513;47.664;9.162;2023-12-07T13:42:29;7.90;;;5.30;;
6947;SDS011;3513;47.664;9.162;2023-12-07T13:44:56;6.23;;;5.10;;
6947;SDS011;3513;47.664;9.162;2023-12-07T13:47:26;7.07;;;5.37;;
6947;SDS011;3513;47.664;9.162;2023-12-07T13:50:01;10.23;;;6.40;;
6947;SDS011;3513;47.664;9.162;2023-12-07T13:52:28;10.80;;;7.90;;
6947;SDS011;3513;47.664;9.162;2023-12-07T13:54:54;10.50;;;5.37;;
6947;SDS011;3513;47.664;9.162;2023-12-07T13:57:21;10.33;;;7.20;;
6947;SDS011;3513;47.664;9.162;2023-12-07T13:59:49;15.00;;;9.47;;
6947;SDS011;3513;47.664;9.162;2023-12-07T14:02:15;23.60;;;7.60;;
6947;SDS011;3513;47.664;9.162;2023-12-07T14:04:41;11.03;;;6.53;;
6947;SDS011;3513;47.664;9.162;2023-12-07T14:07:07;11.10;;;6.00;;
6947;SDS011;3513;47.664;9.162;2023-12-07T14:09:34;10.63;;;6.50;;
6947;SDS011;3513;47.664;9.162;2023-12-07T14:11:59;12.93;;;5.50;;
6947;SDS011;3513;47.664;9.162;2023-12-07T14:14:25;12.67;;;8.57;;
6947;SDS011;3513;47.664;9.162;2023-12-07T14:16:50;8.80;;;6.60;;
6947;SDS011;3513;47.664;9.162;2023-12-07T14:19:16;12.07;;;6.97;;
6947;SDS011;3513;47.664;9.162;2023-12-07T14:21:41;15.57;;;9.10;;
6947;SDS011;3513;47.664;9.162;2023-12-07T14:24:08;9.07;;;6.53;;
6947;SDS011;3513;47.664;9.162;2023-12-07T14:26:34;9.23;;;6.10;;
6947;SDS011;3513;47.664;9.162;2023-12-07T14:29:00;8.60;;;6.20;;
6947;SDS011;3513;47.664;9.162;2023-12-07T14:31:26;11.70;;;7.40;;
6947;SDS011;3513;47.664;9.162;2023-12-07T14:33:51;10.70;;;7.17;;
6947;SDS011;3513;47.664;9.162;2023-12-07T14:36:18;10.07;;;7.33;;
6947;SDS011;3513;47.664;9.162;2023-12-07T14:38:44;12.00;;;7.63;;
6947;SDS011;3513;47.664;9.162;2023-12-07T14:41:10;17.33;;;9.63;;
6947;SDS011;3513;47.664;9.162;2023-12-07T14:43:37;7.97;;;6.40;;
6947;SDS011;3513;47.664;9.162;2023-12-07T14:46:05;11.87;;;8.03;;
6947;SDS011;3513;47.664;9.162;2023-12-07T14:48:32;11.93;;;7.57;;
6947;SDS011;3513;47.664;9.162;2023-12-07T14:50:58;9.50;;;7.20;;
6947;SDS011;3513;47.664;9.162;2023-12-07T14:53:23;11.10;;;7.20;;
6947;SDS011;3513;47.664;9.162;2023-12-07T14:55:50;8.73;;;6.87;;
6947;SDS011;3513;47.664;9.162;2023-12-07T14:58:16;15.93;;;8.00;;